Marine Hornbill — 3FEF3 — position and weather

sailwx.info

Track history (hours):
 
Tides and Currents Weather Stations Pressure Air Temp Water Temp Dewpoint Dewpoint Depression Visibility Wind Speed Wind Dir Waves Ship Positions

Marine Hornbill

Last reported at 2014-Aug-13 03:27 UTC. Time now 2014-Sep-02 01:56 UTC.
Position N 34°03' E 134°59'.
Warning: this ship's position is 19 days out of date.

Length 116 m; draft 9.9 m.

Type: Cargo ship. MMSI: 357869000.

Date/timePositionNaut miles runAvg speedWind from/ knotsBaromVisibWave heightAir tempDewpointWater temp
2014-Aug-13 03:27N 34°03' E 134°59'1011.5
2014-Aug-13 02:33N 34°12' E 135°03'4 3.8
2014-Aug-13 01:33N 34°14' E 135°07'0 0.0
2014-Aug-13 00:33N 34°14' E 135°07'0 0.0
2014-Aug-12 23:33N 34°14' E 135°07'0 0.0
2014-Aug-12 22:33N 34°14' E 135°07'0 0.0
2014-Aug-12 21:33N 34°14' E 135°07'0 0.0
2014-Aug-12 20:33N 34°14' E 135°07'0 0.0
2014-Aug-12 19:33N 34°14' E 135°07'0 0.0
2014-Aug-12 18:33N 34°14' E 135°07'0 0.0
2014-Aug-12 17:33N 34°14' E 135°07'0 0.0
2014-Aug-12 16:33N 34°14' E 135°07'0 0.0
2014-Aug-12 15:33N 34°14' E 135°07'0 0.0
2014-Aug-12 14:33N 34°14' E 135°07'0 0.0
2014-Aug-12 13:33N 34°14' E 135°07'0 0.0
2014-Aug-12 12:33N 34°14' E 135°07'0 0.0
2014-Aug-12 11:33N 34°14' E 135°07'0 0.0
2014-Aug-12 10:33N 34°14' E 135°07'0 0.0
2014-Aug-12 09:33N 34°14' E 135°07'0 0.0
2014-Aug-12 08:33N 34°14' E 135°07'0 0.0
2014-Aug-12 07:33N 34°14' E 135°07'0 0.0
2014-Aug-12 06:33N 34°14' E 135°07'0 0.0
2014-Aug-12 05:33N 34°14' E 135°07'0 0.0
2014-Aug-12 04:33N 34°14' E 135°07'0 0.0
2014-Aug-12 03:33N 34°14' E 135°07'0 0.0
2014-Aug-12 02:33N 34°14' E 135°07'0 0.0
2014-Aug-12 01:33N 34°14' E 135°07'0 0.0
2014-Aug-12 00:33N 34°14' E 135°07'0 0.0
2014-Aug-11 23:33N 34°14' E 135°07'0 0.0
2014-Aug-11 22:33N 34°14' E 135°07'0 0.0
2014-Aug-11 21:33N 34°14' E 135°07'0 0.0
2014-Aug-11 20:33N 34°14' E 135°07'0 0.0
2014-Aug-11 19:33N 34°14' E 135°07'0 0.0
2014-Aug-11 18:33N 34°14' E 135°07'0 0.0
2014-Aug-11 17:33N 34°14' E 135°07'0 0.0
2014-Aug-11 16:33N 34°14' E 135°07'0 0.0
2014-Aug-11 15:33N 34°14' E 135°07'0 0.0
2014-Aug-11 14:33N 34°14' E 135°07'0 0.0
2014-Aug-11 13:33N 34°14' E 135°07'0 0.0
2014-Aug-11 12:33N 34°14' E 135°07'0 0.0
2014-Aug-11 11:33N 34°14' E 135°07'0 0.0
2014-Aug-11 10:33N 34°14' E 135°07'0 0.0
2014-Aug-11 09:33N 34°14' E 135°07'0 0.0
2014-Aug-11 08:33N 34°14' E 135°07'0 0.0
2014-Aug-11 07:33N 34°14' E 135°07'0 0.0
2014-Aug-11 06:33N 34°14' E 135°07'0 0.0
2014-Aug-11 05:33N 34°14' E 135°07'0 0.0
2014-Aug-11 04:33N 34°14' E 135°07'0 0.0
2014-Aug-11 03:33N 34°14' E 135°07'1 1.0
2014-Aug-11 02:33N 34°14' E 135°06'4 3.9
2014-Aug-11 01:33N 34°15' E 135°01'5 4.2
2014-Aug-11 00:24N 34°19' E 134°59'8 9.4
2014-Aug-10 23:33N 34°25' E 135°05'1 0.4
2014-Aug-10 21:30N 34°26' E 135°06'0 0.0
2014-Aug-10 20:24N 34°26' E 135°06'0 0.0
2014-Aug-10 19:30N 34°26' E 135°06'0 0.0
2014-Aug-10 18:06N 34°26' E 135°06'0 0.0
2014-Aug-10 17:30N 34°26' E 135°06'0 0.0
2014-Aug-10 16:12N 34°26' E 135°06'0 0.1
2014-Aug-10 15:30N 34°26' E 135°06'0 0.0
2014-Aug-10 14:24N 34°26' E 135°06'0 0.0
2014-Aug-10 13:24N 34°26' E 135°06'0 0.0
2014-Aug-10 12:30N 34°26' E 135°06'0 0.0
2014-Aug-10 11:18N 34°26' E 135°06'0 0.0
2014-Aug-10 10:24N 34°26' E 135°06'0 0.0
2014-Aug-10 09:24N 34°26' E 135°06'0 0.0
2014-Aug-10 08:24N 34°26' E 135°06'0 0.0
2014-Aug-10 07:30N 34°26' E 135°06'0 0.1
2014-Aug-10 06:24N 34°26' E 135°06'0 0.1
2014-Aug-10 05:30N 34°26' E 135°06'0 0.0
2014-Aug-10 04:18N 34°26' E 135°06'0 0.1
2014-Aug-10 03:30N 34°26' E 135°06'0 0.2
2014-Aug-10 02:33N 34°26' E 135°06'0 0.5
2014-Aug-10 01:33N 34°26' E 135°06'1 0.8
2014-Aug-10 00:29N 34°25' E 135°06'0 0.1
2014-Aug-09 23:29N 34°25' E 135°06'0 0.0
2014-Aug-09 22:29N 34°25' E 135°06'0 0.0
2014-Aug-09 21:28N 34°25' E 135°06'0 0.0
2014-Aug-09 20:23N 34°25' E 135°06'0 0.0
2014-Aug-09 19:23N 34°25' E 135°06'0 0.0
2014-Aug-09 18:17N 34°25' E 135°06'0 0.0
2014-Aug-09 17:29N 34°25' E 135°06'0 0.0
2014-Aug-09 16:11N 34°25' E 135°06'0 0.1
2014-Aug-09 15:28N 34°25' E 135°06'0 0.0
2014-Aug-09 14:29N 34°25' E 135°06'0 0.1
2014-Aug-09 13:31N 34°25' E 135°06'0 0.0
2014-Aug-09 12:29N 34°25' E 135°06'0 0.0
2014-Aug-09 11:29N 34°25' E 135°06'0 0.1
2014-Aug-09 10:28N 34°25' E 135°06'0 0.0
2014-Aug-09 09:32N 34°25' E 135°06'0 0.0
2014-Aug-09 08:29N 34°25' E 135°06'0 0.0
2014-Aug-09 07:29N 34°25' E 135°06'0 0.1
2014-Aug-09 06:28N 34°25' E 135°06'0 0.1
2014-Aug-09 05:29N 34°25' E 135°06'0 0.0
2014-Aug-09 04:23N 34°25' E 135°06'0 0.0
2014-Aug-09 03:05N 34°25' E 135°06'0 0.1
2014-Aug-09 02:23N 34°25' E 135°06'0 0.1
2014-Aug-09 01:29N 34°25' E 135°06'0 0.1
2014-Aug-09 00:29N 34°25' E 135°06'0 0.0
2014-Aug-08 23:29N 34°25' E 135°06'0 0.0
2014-Aug-08 22:29N 34°25' E 135°06'0 0.0
2014-Aug-08 21:29N 34°25' E 135°06'0 0.1
2014-Aug-08 20:23N 34°25' E 135°06'0 0.1
2014-Aug-08 19:28N 34°25' E 135°06'0 0.0
2014-Aug-08 18:11N 34°25' E 135°06'0 0.1
2014-Aug-08 17:29N 34°25' E 135°06'0 0.1
2014-Aug-08 16:23N 34°25' E 135°06'0 0.0
2014-Aug-08 15:29N 34°25' E 135°06'0 0.0
2014-Aug-08 14:29N 34°25' E 135°06'0 0.0
2014-Aug-08 13:29N 34°25' E 135°06'0 0.0
2014-Aug-08 12:29N 34°25' E 135°06'0 0.0
2014-Aug-08 11:29N 34°25' E 135°06'0 0.0
2014-Aug-08 10:29N 34°25' E 135°06'0 0.0
2014-Aug-08 09:23N 34°25' E 135°06'0 0.1
2014-Aug-08 08:29N 34°25' E 135°06'0 0.1
2014-Aug-08 07:29N 34°25' E 135°06'0 0.1
2014-Aug-08 06:29N 34°25' E 135°06'0 0.1
2014-Aug-08 05:28N 34°25' E 135°06'0 0.0
2014-Aug-08 04:17N 34°25' E 135°06'0 0.0
2014-Aug-08 03:16N 34°25' E 135°06'0 0.0
2014-Aug-08 02:29N 34°25' E 135°06'1 1.6
2014-Aug-08 01:33N 34°24' E 135°05'9 9.0
2014-Aug-08 00:33N 34°16' E 134°59'7 7.0
2014-Aug-07 23:32N 34°13' E 135°07'0 0.0
2014-Aug-07 22:32N 34°13' E 135°07'0 0.0
2014-Aug-07 21:32N 34°13' E 135°07'0 0.0
2014-Aug-07 20:32N 34°13' E 135°07'0 0.0
2014-Aug-07 19:29N 34°13' E 135°07'0 0.0
2014-Aug-07 18:32N 34°13' E 135°07'0 0.0
2014-Aug-07 17:32N 34°13' E 135°07'0 0.0
2014-Aug-07 16:32N 34°13' E 135°07'0 0.1
2014-Aug-07 15:32N 34°13' E 135°07'0 0.0
2014-Aug-07 14:32N 34°13' E 135°07'0 0.0
2014-Aug-07 13:29N 34°13' E 135°07'0 0.0
2014-Aug-07 12:32N 34°13' E 135°07'0 0.1
2014-Aug-07 11:26N 34°13' E 135°07'0 0.1
2014-Aug-07 10:32N 34°13' E 135°07'0 0.0
2014-Aug-07 09:32N 34°13' E 135°07'0 0.0
2014-Aug-07 08:32N 34°13' E 135°07'0 0.1
2014-Aug-07 07:32N 34°13' E 135°07'0 0.0
2014-Aug-07 06:26N 34°13' E 135°07'0 0.0
2014-Aug-07 05:32N 34°13' E 135°07'0 0.0
2014-Aug-07 04:32N 34°13' E 135°07'0 0.0
2014-Aug-07 03:32N 34°13' E 135°07'0 0.1
2014-Aug-07 02:32N 34°13' E 135°07'0 0.1
2014-Aug-07 01:32N 34°13' E 135°07'0 0.0
2014-Aug-07 00:32N 34°13' E 135°07'0 0.0
2014-Aug-06 23:32N 34°13' E 135°07'0 0.1
2014-Aug-06 22:32N 34°13' E 135°07'0 0.0
2014-Aug-06 21:32N 34°13' E 135°07'0 0.1
2014-Aug-06 20:32N 34°13' E 135°07'0 0.1
2014-Aug-06 19:32N 34°13' E 135°07'0 0.0
2014-Aug-06 18:32N 34°13' E 135°07'0 0.0
2014-Aug-06 17:32N 34°13' E 135°07'0 0.1
2014-Aug-06 16:32N 34°13' E 135°07'0 0.1
2014-Aug-06 15:32N 34°13' E 135°07'0 0.0
2014-Aug-06 14:32N 34°13' E 135°07'0 0.1
2014-Aug-06 13:32N 34°13' E 135°07'0 0.1
2014-Aug-06 12:32N 34°13' E 135°07'0 0.0
2014-Aug-06 11:32N 34°13' E 135°07'0 0.1
2014-Aug-06 10:32N 34°13' E 135°07'0 0.1
2014-Aug-06 09:29N 34°13' E 135°07'0 0.0
2014-Aug-06 08:32N 34°13' E 135°07'0 0.0
2014-Aug-06 07:32N 34°13' E 135°07'0 0.0
2014-Aug-06 06:20N 34°13' E 135°07'0 0.0
2014-Aug-06 05:32N 34°13' E 135°07'0 0.0
2014-Aug-06 04:32N 34°13' E 135°07'0 0.0
2014-Aug-06 03:32N 34°13' E 135°07'0 0.0
2014-Aug-06 02:32N 34°13' E 135°07'0 0.0
2014-Aug-06 01:32N 34°13' E 135°07'0 0.0
2014-Aug-06 00:32N 34°13' E 135°07'0 0.1
2014-Aug-05 23:32N 34°13' E 135°07'0 0.0
2014-Aug-05 22:32N 34°13' E 135°07'0 0.0
2014-Aug-05 21:32N 34°13' E 135°07'0 0.1
2014-Aug-05 20:32N 34°13' E 135°07'0 0.0
2014-Aug-05 19:32N 34°13' E 135°07'0 0.0
2014-Aug-05 18:29N 34°13' E 135°07'0 0.0
2014-Aug-05 17:32N 34°13' E 135°07'0 0.0
2014-Aug-05 16:32N 34°13' E 135°07'0 0.0
2014-Aug-05 15:32N 34°13' E 135°07'0 0.0
2014-Aug-05 14:32N 34°13' E 135°07'0 0.0
2014-Aug-05 13:32N 34°13' E 135°07'0 0.0
2014-Aug-05 12:29N 34°13' E 135°07'0 0.0
2014-Aug-05 11:29N 34°13' E 135°07'0 0.0
2014-Aug-05 10:32N 34°13' E 135°07'0 0.0
2014-Aug-05 09:32N 34°13' E 135°07'0 0.0
2014-Aug-05 08:29N 34°13' E 135°07'0 0.1
2014-Aug-05 07:32N 34°13' E 135°07'0 0.0
2014-Aug-05 06:29N 34°13' E 135°07'0 0.0
2014-Aug-05 05:32N 34°13' E 135°07'0 0.1
2014-Aug-05 04:32N 34°13' E 135°07'0 0.0
2014-Aug-05 03:32N 34°13' E 135°07'0 0.0
2014-Aug-05 02:29N 34°13' E 135°07'0 0.0
2014-Aug-05 01:29N 34°13' E 135°07'0 0.0
2014-Aug-05 00:32N 34°13' E 135°07'2 2.2
2014-Aug-04 23:34N 34°14' E 135°04'8 8.2
2014-Aug-04 22:32N 34°21' E 134°60'1010.5
2014-Aug-04 21:34N 34°28' E 135°09'7 7.2
2014-Aug-04 20:33N 34°32' E 135°17'0 0.0
2014-Aug-04 19:21N 34°32' E 135°17'0 0.0
2014-Aug-04 18:21N 34°32' E 135°17'0 0.0
2014-Aug-04 17:33N 34°32' E 135°17'0 0.0
2014-Aug-04 16:33N 34°32' E 135°17'0 0.0
2014-Aug-04 15:21N 34°32' E 135°17'0 0.0
2014-Aug-04 14:27N 34°32' E 135°17'0 0.0
2014-Aug-04 13:33N 34°32' E 135°17'0 0.0
2014-Aug-04 12:21N 34°32' E 135°17'0 0.0
2014-Aug-04 11:33N 34°32' E 135°17'0 0.0
2014-Aug-04 10:33N 34°32' E 135°17'0 0.0
2014-Aug-04 09:21N 34°32' E 135°17'0 0.0
2014-Aug-04 08:15N 34°32' E 135°17'0 0.0
2014-Aug-04 07:33N 34°32' E 135°17'0 0.0
2014-Aug-04 06:33N 34°32' E 135°17'0 0.0
2014-Aug-04 05:21N 34°32' E 135°17'0 0.0
2014-Aug-04 04:27N 34°32' E 135°17'0 0.0
2014-Aug-04 03:27N 34°32' E 135°17'0 0.0
2014-Aug-04 02:33N 34°32' E 135°17'0 0.0
2014-Aug-04 01:33N 34°32' E 135°17'0 0.0
2014-Aug-04 00:27N 34°32' E 135°17'0 0.0
2014-Aug-03 23:33N 34°32' E 135°17'0 0.1
2014-Aug-03 22:33N 34°32' E 135°17'0 0.0
2014-Aug-03 21:33N 34°32' E 135°17'0 0.0
2014-Aug-03 20:33N 34°32' E 135°17'0 0.0
2014-Aug-03 19:33N 34°32' E 135°17'0 0.0
2014-Aug-03 18:27N 34°32' E 135°17'0 0.0
2014-Aug-03 17:33N 34°32' E 135°17'0 0.0
2014-Aug-03 11:33N 34°32' E 135°17'0 0.0
2014-Aug-03 10:27N 34°32' E 135°17'0 0.0
2014-Aug-03 09:27N 34°32' E 135°17'0 0.2
2014-Aug-03 08:33N 34°31' E 135°17'0 0.0
2014-Aug-03 07:33N 34°31' E 135°17'0 0.0
2014-Aug-03 06:33N 34°31' E 135°17'0 0.0
2014-Aug-03 05:33N 34°31' E 135°17'0 0.0
2014-Aug-03 04:33N 34°31' E 135°17'0 0.0
2014-Aug-03 03:27N 34°31' E 135°17'  
Track history (hours):
 
Tides and Currents Weather Stations Pressure Air Temp Water Temp Dewpoint Dewpoint Depression Visibility Wind Speed Wind Dir Waves Ship Positions

Marine Hornbill

Last reported at 2014-Aug-13 03:27 UTC. Time now 2014-Sep-02 01:56 UTC.
Position N 34°03' E 134°59'.
Warning: this ship's position is 19 days out of date.

Length 116 m; draft 9.9 m.

Type: Cargo ship. MMSI: 357869000.

Date/timePositionNaut miles runAvg speedWind from/ knotsBaromVisibWave heightAir tempDewpointWater temp
2014-Aug-13 03:27N 34°03' E 134°59'1011.5
2014-Aug-13 02:33N 34°12' E 135°03'4 3.8
2014-Aug-13 01:33N 34°14' E 135°07'0 0.0
2014-Aug-13 00:33N 34°14' E 135°07'0 0.0
2014-Aug-12 23:33N 34°14' E 135°07'0 0.0
2014-Aug-12 22:33N 34°14' E 135°07'0 0.0
2014-Aug-12 21:33N 34°14' E 135°07'0 0.0
2014-Aug-12 20:33N 34°14' E 135°07'0 0.0
2014-Aug-12 19:33N 34°14' E 135°07'0 0.0
2014-Aug-12 18:33N 34°14' E 135°07'0 0.0
2014-Aug-12 17:33N 34°14' E 135°07'0 0.0
2014-Aug-12 16:33N 34°14' E 135°07'0 0.0
2014-Aug-12 15:33N 34°14' E 135°07'0 0.0
2014-Aug-12 14:33N 34°14' E 135°07'0 0.0
2014-Aug-12 13:33N 34°14' E 135°07'0 0.0
2014-Aug-12 12:33N 34°14' E 135°07'0 0.0
2014-Aug-12 11:33N 34°14' E 135°07'0 0.0
2014-Aug-12 10:33N 34°14' E 135°07'0 0.0
2014-Aug-12 09:33N 34°14' E 135°07'0 0.0
2014-Aug-12 08:33N 34°14' E 135°07'0 0.0
2014-Aug-12 07:33N 34°14' E 135°07'0 0.0
2014-Aug-12 06:33N 34°14' E 135°07'0 0.0
2014-Aug-12 05:33N 34°14' E 135°07'0 0.0
2014-Aug-12 04:33N 34°14' E 135°07'0 0.0
2014-Aug-12 03:33N 34°14' E 135°07'0 0.0
2014-Aug-12 02:33N 34°14' E 135°07'0 0.0
2014-Aug-12 01:33N 34°14' E 135°07'0 0.0
2014-Aug-12 00:33N 34°14' E 135°07'0 0.0
2014-Aug-11 23:33N 34°14' E 135°07'0 0.0
2014-Aug-11 22:33N 34°14' E 135°07'0 0.0
2014-Aug-11 21:33N 34°14' E 135°07'0 0.0
2014-Aug-11 20:33N 34°14' E 135°07'0 0.0
2014-Aug-11 19:33N 34°14' E 135°07'0 0.0
2014-Aug-11 18:33N 34°14' E 135°07'0 0.0
2014-Aug-11 17:33N 34°14' E 135°07'0 0.0
2014-Aug-11 16:33N 34°14' E 135°07'0 0.0
2014-Aug-11 15:33N 34°14' E 135°07'0 0.0
2014-Aug-11 14:33N 34°14' E 135°07'0 0.0
2014-Aug-11 13:33N 34°14' E 135°07'0 0.0
2014-Aug-11 12:33N 34°14' E 135°07'0 0.0
2014-Aug-11 11:33N 34°14' E 135°07'0 0.0
2014-Aug-11 10:33N 34°14' E 135°07'0 0.0
2014-Aug-11 09:33N 34°14' E 135°07'0 0.0
2014-Aug-11 08:33N 34°14' E 135°07'0 0.0
2014-Aug-11 07:33N 34°14' E 135°07'0 0.0
2014-Aug-11 06:33N 34°14' E 135°07'0 0.0
2014-Aug-11 05:33N 34°14' E 135°07'0 0.0
2014-Aug-11 04:33N 34°14' E 135°07'0 0.0
2014-Aug-11 03:33N 34°14' E 135°07'1 1.0
2014-Aug-11 02:33N 34°14' E 135°06'4 3.9
2014-Aug-11 01:33N 34°15' E 135°01'5 4.2
2014-Aug-11 00:24N 34°19' E 134°59'8 9.4
2014-Aug-10 23:33N 34°25' E 135°05'1 0.4
2014-Aug-10 21:30N 34°26' E 135°06'0 0.0
2014-Aug-10 20:24N 34°26' E 135°06'0 0.0
2014-Aug-10 19:30N 34°26' E 135°06'0 0.0
2014-Aug-10 18:06N 34°26' E 135°06'0 0.0
2014-Aug-10 17:30N 34°26' E 135°06'0 0.0
2014-Aug-10 16:12N 34°26' E 135°06'0 0.1
2014-Aug-10 15:30N 34°26' E 135°06'0 0.0
2014-Aug-10 14:24N 34°26' E 135°06'0 0.0
2014-Aug-10 13:24N 34°26' E 135°06'0 0.0
2014-Aug-10 12:30N 34°26' E 135°06'0 0.0
2014-Aug-10 11:18N 34°26' E 135°06'0 0.0
2014-Aug-10 10:24N 34°26' E 135°06'0 0.0
2014-Aug-10 09:24N 34°26' E 135°06'0 0.0
2014-Aug-10 08:24N 34°26' E 135°06'0 0.0
2014-Aug-10 07:30N 34°26' E 135°06'0 0.1
2014-Aug-10 06:24N 34°26' E 135°06'0 0.1
2014-Aug-10 05:30N 34°26' E 135°06'0 0.0
2014-Aug-10 04:18N 34°26' E 135°06'0 0.1
2014-Aug-10 03:30N 34°26' E 135°06'0 0.2
2014-Aug-10 02:33N 34°26' E 135°06'0 0.5
2014-Aug-10 01:33N 34°26' E 135°06'1 0.8
2014-Aug-10 00:29N 34°25' E 135°06'0 0.1
2014-Aug-09 23:29N 34°25' E 135°06'0 0.0
2014-Aug-09 22:29N 34°25' E 135°06'0 0.0
2014-Aug-09 21:28N 34°25' E 135°06'0 0.0
2014-Aug-09 20:23N 34°25' E 135°06'0 0.0
2014-Aug-09 19:23N 34°25' E 135°06'0 0.0
2014-Aug-09 18:17N 34°25' E 135°06'0 0.0
2014-Aug-09 17:29N 34°25' E 135°06'0 0.0
2014-Aug-09 16:11N 34°25' E 135°06'0 0.1
2014-Aug-09 15:28N 34°25' E 135°06'0 0.0
2014-Aug-09 14:29N 34°25' E 135°06'0 0.1
2014-Aug-09 13:31N 34°25' E 135°06'0 0.0
2014-Aug-09 12:29N 34°25' E 135°06'0 0.0
2014-Aug-09 11:29N 34°25' E 135°06'0 0.1
2014-Aug-09 10:28N 34°25' E 135°06'0 0.0
2014-Aug-09 09:32N 34°25' E 135°06'0 0.0
2014-Aug-09 08:29N 34°25' E 135°06'0 0.0
2014-Aug-09 07:29N 34°25' E 135°06'0 0.1
2014-Aug-09 06:28N 34°25' E 135°06'0 0.1
2014-Aug-09 05:29N 34°25' E 135°06'0 0.0
2014-Aug-09 04:23N 34°25' E 135°06'0 0.0
2014-Aug-09 03:05N 34°25' E 135°06'0 0.1
2014-Aug-09 02:23N 34°25' E 135°06'0 0.1
2014-Aug-09 01:29N 34°25' E 135°06'0 0.1
2014-Aug-09 00:29N 34°25' E 135°06'0 0.0
2014-Aug-08 23:29N 34°25' E 135°06'0 0.0
2014-Aug-08 22:29N 34°25' E 135°06'0 0.0
2014-Aug-08 21:29N 34°25' E 135°06'0 0.1
2014-Aug-08 20:23N 34°25' E 135°06'0 0.1
2014-Aug-08 19:28N 34°25' E 135°06'0 0.0
2014-Aug-08 18:11N 34°25' E 135°06'0 0.1
2014-Aug-08 17:29N 34°25' E 135°06'0 0.1
2014-Aug-08 16:23N 34°25' E 135°06'0 0.0
2014-Aug-08 15:29N 34°25' E 135°06'0 0.0
2014-Aug-08 14:29N 34°25' E 135°06'0 0.0
2014-Aug-08 13:29N 34°25' E 135°06'0 0.0
2014-Aug-08 12:29N 34°25' E 135°06'0 0.0
2014-Aug-08 11:29N 34°25' E 135°06'0 0.0
2014-Aug-08 10:29N 34°25' E 135°06'0 0.0
2014-Aug-08 09:23N 34°25' E 135°06'0 0.1
2014-Aug-08 08:29N 34°25' E 135°06'0 0.1
2014-Aug-08 07:29N 34°25' E 135°06'0 0.1
2014-Aug-08 06:29N 34°25' E 135°06'0 0.1
2014-Aug-08 05:28N 34°25' E 135°06'0 0.0
2014-Aug-08 04:17N 34°25' E 135°06'0 0.0
2014-Aug-08 03:16N 34°25' E 135°06'0 0.0
2014-Aug-08 02:29N 34°25' E 135°06'1 1.6
2014-Aug-08 01:33N 34°24' E 135°05'9 9.0
2014-Aug-08 00:33N 34°16' E 134°59'7 7.0
2014-Aug-07 23:32N 34°13' E 135°07'0 0.0
2014-Aug-07 22:32N 34°13' E 135°07'0 0.0
2014-Aug-07 21:32N 34°13' E 135°07'0 0.0
2014-Aug-07 20:32N 34°13' E 135°07'0 0.0
2014-Aug-07 19:29N 34°13' E 135°07'0 0.0
2014-Aug-07 18:32N 34°13' E 135°07'0 0.0
2014-Aug-07 17:32N 34°13' E 135°07'0 0.0
2014-Aug-07 16:32N 34°13' E 135°07'0 0.1
2014-Aug-07 15:32N 34°13' E 135°07'0 0.0
2014-Aug-07 14:32N 34°13' E 135°07'0 0.0
2014-Aug-07 13:29N 34°13' E 135°07'0 0.0
2014-Aug-07 12:32N 34°13' E 135°07'0 0.1
2014-Aug-07 11:26N 34°13' E 135°07'0 0.1
2014-Aug-07 10:32N 34°13' E 135°07'0 0.0
2014-Aug-07 09:32N 34°13' E 135°07'0 0.0
2014-Aug-07 08:32N 34°13' E 135°07'0 0.1
2014-Aug-07 07:32N 34°13' E 135°07'0 0.0
2014-Aug-07 06:26N 34°13' E 135°07'0 0.0
2014-Aug-07 05:32N 34°13' E 135°07'0 0.0
2014-Aug-07 04:32N 34°13' E 135°07'0 0.0
2014-Aug-07 03:32N 34°13' E 135°07'0 0.1
2014-Aug-07 02:32N 34°13' E 135°07'0 0.1
2014-Aug-07 01:32N 34°13' E 135°07'0 0.0
2014-Aug-07 00:32N 34°13' E 135°07'0 0.0
2014-Aug-06 23:32N 34°13' E 135°07'0 0.1
2014-Aug-06 22:32N 34°13' E 135°07'0 0.0
2014-Aug-06 21:32N 34°13' E 135°07'0 0.1
2014-Aug-06 20:32N 34°13' E 135°07'0 0.1
2014-Aug-06 19:32N 34°13' E 135°07'0 0.0
2014-Aug-06 18:32N 34°13' E 135°07'0 0.0
2014-Aug-06 17:32N 34°13' E 135°07'0 0.1
2014-Aug-06 16:32N 34°13' E 135°07'0 0.1
2014-Aug-06 15:32N 34°13' E 135°07'0 0.0
2014-Aug-06 14:32N 34°13' E 135°07'0 0.1
2014-Aug-06 13:32N 34°13' E 135°07'0 0.1
2014-Aug-06 12:32N 34°13' E 135°07'0 0.0
2014-Aug-06 11:32N 34°13' E 135°07'0 0.1
2014-Aug-06 10:32N 34°13' E 135°07'0 0.1
2014-Aug-06 09:29N 34°13' E 135°07'0 0.0
2014-Aug-06 08:32N 34°13' E 135°07'0 0.0
2014-Aug-06 07:32N 34°13' E 135°07'0 0.0
2014-Aug-06 06:20N 34°13' E 135°07'0 0.0
2014-Aug-06 05:32N 34°13' E 135°07'0 0.0
2014-Aug-06 04:32N 34°13' E 135°07'0 0.0
2014-Aug-06 03:32N 34°13' E 135°07'0 0.0
2014-Aug-06 02:32N 34°13' E 135°07'0 0.0
2014-Aug-06 01:32N 34°13' E 135°07'0 0.0
2014-Aug-06 00:32N 34°13' E 135°07'0 0.1
2014-Aug-05 23:32N 34°13' E 135°07'0 0.0
2014-Aug-05 22:32N 34°13' E 135°07'0 0.0
2014-Aug-05 21:32N 34°13' E 135°07'0 0.1
2014-Aug-05 20:32N 34°13' E 135°07'0 0.0
2014-Aug-05 19:32N 34°13' E 135°07'0 0.0
2014-Aug-05 18:29N 34°13' E 135°07'0 0.0
2014-Aug-05 17:32N 34°13' E 135°07'0 0.0
2014-Aug-05 16:32N 34°13' E 135°07'0 0.0
2014-Aug-05 15:32N 34°13' E 135°07'0 0.0
2014-Aug-05 14:32N 34°13' E 135°07'0 0.0
2014-Aug-05 13:32N 34°13' E 135°07'0 0.0
2014-Aug-05 12:29N 34°13' E 135°07'0 0.0
2014-Aug-05 11:29N 34°13' E 135°07'0 0.0
2014-Aug-05 10:32N 34°13' E 135°07'0 0.0
2014-Aug-05 09:32N 34°13' E 135°07'0 0.0
2014-Aug-05 08:29N 34°13' E 135°07'0 0.1
2014-Aug-05 07:32N 34°13' E 135°07'0 0.0
2014-Aug-05 06:29N 34°13' E 135°07'0 0.0
2014-Aug-05 05:32N 34°13' E 135°07'0 0.1
2014-Aug-05 04:32N 34°13' E 135°07'0 0.0
2014-Aug-05 03:32N 34°13' E 135°07'0 0.0
2014-Aug-05 02:29N 34°13' E 135°07'0 0.0
2014-Aug-05 01:29N 34°13' E 135°07'0 0.0
2014-Aug-05 00:32N 34°13' E 135°07'2 2.2
2014-Aug-04 23:34N 34°14' E 135°04'8 8.2
2014-Aug-04 22:32N 34°21' E 134°60'1010.5
2014-Aug-04 21:34N 34°28' E 135°09'7 7.2
2014-Aug-04 20:33N 34°32' E 135°17'0 0.0
2014-Aug-04 19:21N 34°32' E 135°17'0 0.0
2014-Aug-04 18:21N 34°32' E 135°17'0 0.0
2014-Aug-04 17:33N 34°32' E 135°17'0 0.0
2014-Aug-04 16:33N 34°32' E 135°17'0 0.0
2014-Aug-04 15:21N 34°32' E 135°17'0 0.0
2014-Aug-04 14:27N 34°32' E 135°17'0 0.0
2014-Aug-04 13:33N 34°32' E 135°17'0 0.0
2014-Aug-04 12:21N 34°32' E 135°17'0 0.0
2014-Aug-04 11:33N 34°32' E 135°17'0 0.0
2014-Aug-04 10:33N 34°32' E 135°17'0 0.0
2014-Aug-04 09:21N 34°32' E 135°17'0 0.0
2014-Aug-04 08:15N 34°32' E 135°17'0 0.0
2014-Aug-04 07:33N 34°32' E 135°17'0 0.0
2014-Aug-04 06:33N 34°32' E 135°17'0 0.0
2014-Aug-04 05:21N 34°32' E 135°17'0 0.0
2014-Aug-04 04:27N 34°32' E 135°17'0 0.0
2014-Aug-04 03:27N 34°32' E 135°17'0 0.0
2014-Aug-04 02:33N 34°32' E 135°17'0 0.0
2014-Aug-04 01:33N 34°32' E 135°17'0 0.0
2014-Aug-04 00:27N 34°32' E 135°17'0 0.0
2014-Aug-03 23:33N 34°32' E 135°17'0 0.1
2014-Aug-03 22:33N 34°32' E 135°17'0 0.0
2014-Aug-03 21:33N 34°32' E 135°17'0 0.0
2014-Aug-03 20:33N 34°32' E 135°17'0 0.0
2014-Aug-03 19:33N 34°32' E 135°17'0 0.0
2014-Aug-03 18:27N 34°32' E 135°17'0 0.0
2014-Aug-03 17:33N 34°32' E 135°17'0 0.0
2014-Aug-03 11:33N 34°32' E 135°17'0 0.0
2014-Aug-03 10:27N 34°32' E 135°17'0 0.0
2014-Aug-03 09:27N 34°32' E 135°17'0 0.2
2014-Aug-03 08:33N 34°31' E 135°17'0 0.0
2014-Aug-03 07:33N 34°31' E 135°17'0 0.0
2014-Aug-03 06:33N 34°31' E 135°17'0 0.0
2014-Aug-03 05:33N 34°31' E 135°17'0 0.0
2014-Aug-03 04:33N 34°31' E 135°17'0 0.0
2014-Aug-03 03:27N 34°31' E 135°17'  

Dump ship's entire track history